createdAt,value
2019-02-06T00:00:59.698Z,2.64
2019-02-06T00:03:30.117Z,2.62
2019-02-06T00:06:00.570Z,2.48
2019-02-06T00:08:31.143Z,2.45
2019-02-06T00:11:01.598Z,2.44
2019-02-06T00:13:32.482Z,2.39
2019-02-06T00:16:03.030Z,2.33
2019-02-06T00:18:34.276Z,2.31
2019-02-06T00:21:05.102Z,2.29
2019-02-06T00:23:35.550Z,2.26
2019-02-06T00:26:06.358Z,2.28
2019-02-06T00:28:36.983Z,2.19
2019-02-06T00:31:07.430Z,2.18
2019-02-06T00:33:38.271Z,2.18
2019-02-06T00:36:09.107Z,2.09
2019-02-06T00:38:39.615Z,2.06
2019-02-06T00:41:10.440Z,2.22
2019-02-06T00:43:40.884Z,2.12
2019-02-06T00:46:11.711Z,2.03
2019-02-06T00:48:42.322Z,2.00
2019-02-06T00:51:13.257Z,1.93
2019-02-06T00:53:43.707Z,2.10
2019-02-06T00:56:14.148Z,2.01
2019-02-06T00:58:44.632Z,2.08
2019-02-06T01:01:15.068Z,2.04
2019-02-06T01:03:45.562Z,1.98
2019-02-06T01:06:16.379Z,1.85
2019-02-06T01:23:04.052Z,1.66
2019-02-06T01:25:34.571Z,1.62
2019-02-06T01:28:05.411Z,1.58
2019-02-06T01:30:46.472Z,1.56
2019-02-06T01:33:17.214Z,1.55
2019-02-06T01:35:50.225Z,1.60
2019-02-06T01:38:20.725Z,1.54
2019-02-06T01:40:51.525Z,1.48
2019-02-06T01:43:22.280Z,1.50
2019-02-06T01:45:53.102Z,1.56
2019-02-06T01:48:23.595Z,1.45
2019-02-06T01:50:54.041Z,1.47
2019-02-06T01:53:24.904Z,1.38
2019-02-06T01:55:55.374Z,1.35
2019-02-06T01:58:25.861Z,1.42
2019-02-06T02:00:57.001Z,1.34
2019-02-06T02:03:27.447Z,1.28
2019-02-06T02:06:02.320Z,1.30
2019-02-06T02:08:32.638Z,1.34
2019-02-06T02:11:03.360Z,1.29
2019-02-06T02:13:33.861Z,1.29
2019-02-06T02:16:04.849Z,1.40
2019-02-06T02:18:35.300Z,1.39
2019-02-06T02:21:06.178Z,1.41
2019-02-06T02:23:36.619Z,1.39
2019-02-06T02:26:07.127Z,1.35
2019-02-06T02:28:37.578Z,1.35
2019-02-06T02:31:08.819Z,1.35
2019-02-06T02:33:39.338Z,1.31
2019-02-06T02:36:15.721Z,1.37
2019-02-06T02:38:41.964Z,1.38
2019-02-06T02:41:12.400Z,1.30
2019-02-06T02:43:42.862Z,1.32
2019-02-06T02:46:13.322Z,1.33
2019-02-06T02:48:43.769Z,1.31
2019-02-06T02:51:14.520Z,1.37
2019-02-06T02:53:44.962Z,1.36
2019-02-06T02:56:15.453Z,1.37
2019-02-06T02:58:46.079Z,1.31
2019-02-06T03:01:34.827Z,1.28
2019-02-06T03:04:11.592Z,1.30
2019-02-06T03:06:43.888Z,1.25
2019-02-06T03:09:14.447Z,1.24
2019-02-06T03:11:44.887Z,1.24
2019-02-06T03:14:15.432Z,1.21
2019-02-06T03:16:45.874Z,1.15
2019-02-06T03:19:17.311Z,1.14
2019-02-06T03:21:48.091Z,1.16
2019-02-06T03:24:18.845Z,1.16
2019-02-06T03:26:49.689Z,1.20
2019-02-06T03:29:20.132Z,1.23
2019-02-06T03:31:50.617Z,1.25
2019-02-06T03:34:21.072Z,1.26
2019-02-06T03:36:51.915Z,1.22
2019-02-06T03:39:22.386Z,1.11
2019-02-06T03:41:53.465Z,1.11
2019-02-06T03:44:23.958Z,1.06
2019-02-06T03:46:54.406Z,1.17
2019-02-06T03:49:24.843Z,1.12
2019-02-06T03:51:55.407Z,1.09
2019-02-06T03:54:25.842Z,1.07
2019-02-06T03:56:56.329Z,1.13
2019-02-06T03:59:27.849Z,1.15
2019-02-06T04:01:58.574Z,1.12
2019-02-06T04:04:29.044Z,1.14
2019-02-06T04:07:01.250Z,1.14
2019-02-06T04:09:32.531Z,1.32
2019-02-06T04:12:03.296Z,1.29
2019-02-06T04:14:34.098Z,1.27
2019-02-06T04:17:04.583Z,1.38
2019-02-06T04:19:35.145Z,1.37
2019-02-06T04:22:05.802Z,1.38
2019-02-06T04:24:36.632Z,1.30
2019-02-06T04:27:07.069Z,1.27
2019-02-06T04:29:37.541Z,1.23
2019-02-06T04:32:07.984Z,1.24
2019-02-06T04:34:38.477Z,1.23
2019-02-06T04:37:09.128Z,1.25
2019-02-06T04:39:39.922Z,1.33
2019-02-06T04:42:10.399Z,1.32
2019-02-06T04:44:40.855Z,1.44
2019-02-06T04:47:11.622Z,1.36
2019-02-06T04:49:42.545Z,1.37
2019-02-06T04:52:13.013Z,1.42
2019-02-06T04:54:43.457Z,1.64
2019-02-06T04:57:13.903Z,1.51
2019-02-06T04:59:44.406Z,1.43
2019-02-06T05:02:14.838Z,1.44
2019-02-06T05:04:45.662Z,1.58
2019-02-06T05:07:19.233Z,1.44
2019-02-06T05:09:48.265Z,1.45
2019-02-06T05:12:18.759Z,1.47
2019-02-06T05:14:49.639Z,1.47
2019-02-06T05:17:20.086Z,1.51
2019-02-06T05:19:50.714Z,1.50
2019-02-06T05:22:21.170Z,1.46
2019-02-06T05:24:51.720Z,1.46
2019-02-06T05:27:22.458Z,1.45
2019-02-06T05:29:53.003Z,1.54
2019-02-06T05:32:23.754Z,1.42
2019-02-06T05:34:54.813Z,1.41
2019-02-06T05:37:32.060Z,1.57
2019-02-06T05:39:57.490Z,1.54
2019-02-06T05:42:27.998Z,1.51
2019-02-06T05:44:58.470Z,1.52
2019-02-06T05:47:28.912Z,1.55
2019-02-06T05:49:59.417Z,1.52
2019-02-06T05:52:30.747Z,1.49
2019-02-06T05:55:04.485Z,1.57
2019-02-06T05:57:33.358Z,1.57
2019-02-06T06:00:05.297Z,1.59
2019-02-06T06:02:35.795Z,1.72
2019-02-06T06:05:06.891Z,1.63
2019-02-06T06:07:45.389Z,1.63
2019-02-06T06:10:12.394Z,1.70
2019-02-06T06:12:43.387Z,1.64
2019-02-06T06:15:15.668Z,1.71
2019-02-06T06:17:46.467Z,1.71
2019-02-06T06:20:17.781Z,1.63
2019-02-06T06:22:48.362Z,1.65
2019-02-06T06:25:20.603Z,1.66
2019-02-06T06:27:51.460Z,1.65
2019-02-06T06:30:22.150Z,1.62
2019-02-06T06:32:52.576Z,1.68
2019-02-06T06:35:23.061Z,1.65
2019-02-06T06:38:02.341Z,1.64
2019-02-06T06:40:26.052Z,1.74
2019-02-06T06:42:56.887Z,1.73
2019-02-06T06:45:27.326Z,1.71
2019-02-06T06:47:57.794Z,1.69
2019-02-06T06:50:28.339Z,1.69
2019-02-06T06:52:59.142Z,1.71
2019-02-06T06:55:29.863Z,1.73
2019-02-06T06:58:00.302Z,1.76
2019-02-06T07:00:31.807Z,1.75
2019-02-06T07:03:02.305Z,1.77
2019-02-06T07:05:33.751Z,1.78
2019-02-06T07:08:11.223Z,1.78
2019-02-06T07:10:37.221Z,1.90
2019-02-06T07:13:08.212Z,1.91
2019-02-06T07:15:38.630Z,1.89
2019-02-06T07:18:09.114Z,1.89
2019-02-06T07:20:39.878Z,1.91
2019-02-06T07:23:10.331Z,1.91
2019-02-06T07:25:41.147Z,2.04
2019-02-06T07:28:14.366Z,2.00
2019-02-06T07:30:45.177Z,2.02
2019-02-06T07:33:16.019Z,2.04
2019-02-06T07:35:46.647Z,1.97
2019-02-06T07:38:24.303Z,1.97
2019-02-06T07:40:49.267Z,2.08
2019-02-06T07:43:19.746Z,2.03
2019-02-06T07:45:50.184Z,2.04
2019-02-06T07:48:21.000Z,2.06
2019-02-06T07:50:51.657Z,2.14
2019-02-06T07:53:22.106Z,2.12
2019-02-06T07:55:52.586Z,2.16
2019-02-06T07:58:23.191Z,2.20
2019-02-06T08:00:53.632Z,2.23
2019-02-06T08:03:24.203Z,2.33
2019-02-06T08:05:55.080Z,2.31
2019-02-06T08:08:35.731Z,2.29
2019-02-06T08:10:57.706Z,2.30
2019-02-06T08:13:28.147Z,2.36
2019-02-06T08:15:59.462Z,2.37
2019-02-06T08:18:30.436Z,2.39
2019-02-06T08:21:01.216Z,2.43
2019-02-06T08:23:32.078Z,2.41
2019-02-06T08:26:02.513Z,2.52
2019-02-06T08:28:32.979Z,2.56
2019-02-06T08:31:03.605Z,2.66
2019-02-06T08:33:34.091Z,2.74
2019-02-06T08:36:04.907Z,2.80
2019-02-06T08:38:47.052Z,2.91
2019-02-06T08:41:07.954Z,2.89
2019-02-06T08:43:38.583Z,3.01
2019-02-06T08:46:09.054Z,3.06
2019-02-06T08:48:39.503Z,3.00
2019-02-06T08:51:09.986Z,3.15
2019-02-06T08:53:40.431Z,3.12
2019-02-06T08:56:11.479Z,3.33
2019-02-06T08:58:41.948Z,3.46
2019-02-06T09:01:13.851Z,3.48
2019-02-06T09:03:44.693Z,3.54
2019-02-06T09:06:15.834Z,3.64
2019-02-06T09:08:46.877Z,3.59
2019-02-06T09:11:19.050Z,3.59
2019-02-06T09:13:50.107Z,3.56
2019-02-06T09:16:20.947Z,3.52
2019-02-06T09:18:51.489Z,3.64
2019-02-06T09:21:22.301Z,3.62
2019-02-06T09:23:53.450Z,3.63
2019-02-06T09:26:24.790Z,3.61
2019-02-06T09:28:55.422Z,3.62
2019-02-06T09:31:26.170Z,3.54
2019-02-06T09:33:56.617Z,3.49
2019-02-06T09:36:27.116Z,3.56
2019-02-06T09:38:57.599Z,3.53
2019-02-06T09:41:28.046Z,3.45
2019-02-06T09:43:58.538Z,3.50
2019-02-06T09:46:28.979Z,3.55
2019-02-06T09:48:59.429Z,3.57
2019-02-06T09:51:30.119Z,3.69
2019-02-06T09:54:00.535Z,3.63
2019-02-06T09:56:30.974Z,3.81
2019-02-06T09:59:01.601Z,3.86
2019-02-06T10:01:32.066Z,3.83
2019-02-06T10:04:02.884Z,3.90
2019-02-06T10:06:33.758Z,3.93
2019-02-06T10:09:08.188Z,3.89
2019-02-06T10:11:38.719Z,3.81
2019-02-06T10:14:09.373Z,3.96
2019-02-06T10:16:39.891Z,3.95
2019-02-06T10:19:10.603Z,4.01
2019-02-06T10:21:41.094Z,4.02
2019-02-06T10:24:11.698Z,3.89
2019-02-06T10:26:42.136Z,3.79
2019-02-06T10:29:12.709Z,3.87
2019-02-06T10:31:43.148Z,3.76
2019-02-06T10:34:13.590Z,3.87
2019-02-06T10:36:44.087Z,3.86
2019-02-06T10:39:14.582Z,3.97
2019-02-06T10:41:45.023Z,3.92
2019-02-06T10:44:15.508Z,3.98
2019-02-06T10:46:46.426Z,4.00
2019-02-06T10:49:16.869Z,4.00
2019-02-06T10:51:47.364Z,4.03
2019-02-06T10:54:18.136Z,4.08
2019-02-06T10:56:48.587Z,4.04
2019-02-06T10:59:19.407Z,4.08
2019-02-06T11:01:50.036Z,4.11
2019-02-06T11:04:20.475Z,4.15
2019-02-06T11:06:50.984Z,4.25
2019-02-06T11:09:21.429Z,4.28
2019-02-06T11:11:52.266Z,4.20
2019-02-06T11:14:22.985Z,4.29
2019-02-06T11:16:53.827Z,4.40
2019-02-06T11:19:24.271Z,4.41
2019-02-06T11:21:55.096Z,4.42
2019-02-06T11:24:26.831Z,4.54
2019-02-06T11:26:58.118Z,4.58
2019-02-06T11:29:28.610Z,4.59
2019-02-06T11:31:59.426Z,4.58
2019-02-06T11:34:29.969Z,4.59
2019-02-06T11:37:00.480Z,4.66
2019-02-06T11:39:30.933Z,4.68
2019-02-06T11:42:01.470Z,4.85
2019-02-06T11:44:31.957Z,4.91
2019-02-06T11:47:02.397Z,4.89
2019-02-06T11:49:38.518Z,5.04
2019-02-06T11:52:09.240Z,5.06
2019-02-06T11:54:40.182Z,5.15
2019-02-06T11:57:10.628Z,5.16
2019-02-06T11:59:41.084Z,5.18
2019-02-06T12:02:12.191Z,5.22
2019-02-06T12:04:43.147Z,5.25
2019-02-06T12:07:13.590Z,5.32
2019-02-06T12:09:44.035Z,5.39
2019-02-06T12:12:14.548Z,5.30
2019-02-06T12:14:44.992Z,5.27
2019-02-06T12:17:15.436Z,5.26
2019-02-06T12:19:46.056Z,5.30
2019-02-06T12:22:16.502Z,5.35
2019-02-06T12:24:47.834Z,5.33
2019-02-06T12:27:18.708Z,5.37
2019-02-06T12:29:49.614Z,5.38
2019-02-06T12:32:20.064Z,5.35
2019-02-06T12:34:50.558Z,5.36
2019-02-06T12:37:21.385Z,5.38
2019-02-06T12:39:51.883Z,5.43
2019-02-06T12:42:22.780Z,5.52
2019-02-06T12:44:53.221Z,5.50
2019-02-06T12:47:26.780Z,5.53
2019-02-06T12:49:56.570Z,5.58
2019-02-06T12:52:27.020Z,5.62
2019-02-06T12:54:57.793Z,5.70
2019-02-06T12:57:36.457Z,5.65
2019-02-06T13:00:00.431Z,5.64
2019-02-06T13:02:30.881Z,5.74
2019-02-06T13:05:01.705Z,5.76
2019-02-06T13:07:33.396Z,5.88
2019-02-06T13:10:03.855Z,5.86
2019-02-06T13:12:34.343Z,5.90
2019-02-06T13:15:05.787Z,5.92
2019-02-06T13:17:36.230Z,5.99
2019-02-06T13:20:10.166Z,6.08
2019-02-06T13:22:40.611Z,6.08
2019-02-06T13:25:11.511Z,6.00
2019-02-06T13:27:42.002Z,5.88
2019-02-06T13:30:24.829Z,5.88
2019-02-06T13:32:55.618Z,5.91
2019-02-06T13:35:26.068Z,5.92
2019-02-06T13:37:56.522Z,6.02
2019-02-06T13:40:28.053Z,5.98
2019-02-06T13:42:58.558Z,5.96
2019-02-06T13:45:35.003Z,5.97
2019-02-06T13:48:05.809Z,5.96
2019-02-06T13:50:36.724Z,5.96
2019-02-06T13:53:07.600Z,6.07
2019-02-06T13:55:38.171Z,6.03
2019-02-06T13:58:19.708Z,6.13
2019-02-06T14:00:41.882Z,6.08
2019-02-06T14:03:12.322Z,6.00
2019-02-06T14:05:46.719Z,6.03
2019-02-06T14:08:17.652Z,6.07
2019-02-06T14:10:58.407Z,6.16
2019-02-06T14:13:23.007Z,6.19
2019-02-06T14:15:53.565Z,6.24
2019-02-06T14:18:24.126Z,6.15
2019-02-06T14:20:55.116Z,6.20
2019-02-06T14:23:36.194Z,6.23
2019-02-06T14:26:22.184Z,6.24
2019-02-06T14:29:48.808Z,6.25
2019-02-06T14:33:07.497Z,6.14
2019-02-06T14:36:31.014Z,6.12
2019-02-06T14:39:27.328Z,6.17
2019-02-06T14:42:27.191Z,6.18
2019-02-06T14:45:34.687Z,6.15
2019-02-06T14:48:34.170Z,6.18
2019-02-06T14:51:45.627Z,6.18
2019-02-06T14:54:51.502Z,6.22
2019-02-06T14:58:17.799Z,6.13
2019-02-06T15:01:17.099Z,6.27
2019-02-06T15:03:59.493Z,6.16
2019-02-06T15:07:13.959Z,6.23
2019-02-06T15:10:43.214Z,6.13
2019-02-06T15:14:03.729Z,6.16
2019-02-06T15:17:21.685Z,6.08
2019-02-06T15:20:39.494Z,6.04
2019-02-06T15:23:36.425Z,6.14
2019-02-06T15:27:11.013Z,6.01
2019-02-06T15:30:43.843Z,6.02
2019-02-06T15:34:06.530Z,6.00
2019-02-06T15:37:03.175Z,5.92
2019-02-06T15:39:59.699Z,5.91
2019-02-06T15:43:11.327Z,5.93
2019-02-06T15:46:24.738Z,5.84
2019-02-06T15:49:47.500Z,5.84
2019-02-06T15:52:48.896Z,5.86
2019-02-06T15:56:09.671Z,5.86
2019-02-06T15:59:20.775Z,5.78
2019-02-06T16:02:30.756Z,5.80
2019-02-06T16:05:32.914Z,5.77
2019-02-06T16:08:56.640Z,5.83
2019-02-06T16:12:16.236Z,5.76
2019-02-06T16:15:16.557Z,5.80
2019-02-06T16:18:20.606Z,5.74
2019-02-06T16:21:25.163Z,5.76
2019-02-06T16:24:15.207Z,5.73
2019-02-06T16:27:16.798Z,5.79
2019-02-06T16:30:21.043Z,5.69
2019-02-06T16:33:33.736Z,5.57
2019-02-06T16:36:33.096Z,5.52
2019-02-06T16:39:57.016Z,5.48
2019-02-06T16:43:14.195Z,5.36
2019-02-06T16:46:14.503Z,5.40
2019-02-06T16:49:26.362Z,5.49
2019-02-06T16:52:33.835Z,5.44
2019-02-06T16:55:34.919Z,5.40
2019-02-06T16:58:40.280Z,5.39
2019-02-06T17:01:58.834Z,5.39
2019-02-06T17:04:35.648Z,5.35
2019-02-06T17:07:31.694Z,5.50
2019-02-06T17:10:36.192Z,5.49
2019-02-06T17:13:46.791Z,5.60
2019-02-06T17:16:46.141Z,5.63
2019-02-06T17:19:42.710Z,5.62
2019-02-06T17:22:34.600Z,5.64
2019-02-06T17:25:49.132Z,5.62
2019-02-06T17:28:57.358Z,5.55
2019-02-06T17:32:07.155Z,5.58
2019-02-06T17:35:39.755Z,5.43
2019-02-06T17:38:52.935Z,5.42
2019-02-06T17:41:54.686Z,5.46
2019-02-06T17:45:19.702Z,5.41
2019-02-06T17:48:13.223Z,5.36
2019-02-06T17:50:58.229Z,5.37
2019-02-06T17:53:43.149Z,5.34
2019-02-06T17:56:13.717Z,5.33
2019-02-06T17:58:45.126Z,5.40
2019-02-06T18:01:39.692Z,5.32
2019-02-06T18:04:16.018Z,5.31
2019-02-06T18:06:46.508Z,5.27
2019-02-06T18:09:18.396Z,5.27
2019-02-06T18:11:51.751Z,5.23
2019-02-06T18:14:22.674Z,5.27
2019-02-06T18:16:53.145Z,5.30
2019-02-06T18:19:23.653Z,5.25
2019-02-06T18:21:54.757Z,5.20
2019-02-06T18:24:25.550Z,5.19
2019-02-06T18:26:56.517Z,5.14
2019-02-06T18:29:27.348Z,5.18
2019-02-06T18:31:58.169Z,5.13
2019-02-06T18:34:28.662Z,5.17
2019-02-06T18:36:59.499Z,5.11
2019-02-06T18:39:30.047Z,5.03
2019-02-06T18:42:01.210Z,5.02
2019-02-06T18:44:32.435Z,5.12
2019-02-06T18:47:03.354Z,5.11
2019-02-06T18:49:33.978Z,5.17
2019-02-06T18:52:06.122Z,5.05
2019-02-06T18:54:36.616Z,5.07
2019-02-06T18:57:07.152Z,5.10
2019-02-06T18:59:37.654Z,4.98
2019-02-06T19:02:08.188Z,4.94
2019-02-06T19:04:39.164Z,4.95
2019-02-06T19:07:09.641Z,5.01
2019-02-06T19:09:40.593Z,5.01
2019-02-06T19:12:11.427Z,5.09
2019-02-06T19:14:41.889Z,5.17
2019-02-06T19:17:14.886Z,5.13
2019-02-06T19:19:46.515Z,5.12
2019-02-06T19:22:18.999Z,5.03
2019-02-06T19:24:49.720Z,5.04
2019-02-06T19:27:20.631Z,5.09
2019-02-06T19:29:52.533Z,5.05
2019-02-06T19:32:24.439Z,5.07
2019-02-06T19:34:55.319Z,5.05
2019-02-06T19:37:26.986Z,5.07
2019-02-06T19:39:57.608Z,5.12
2019-02-06T19:42:28.175Z,5.10
2019-02-06T19:44:58.629Z,5.04
2019-02-06T19:47:30.717Z,4.95
2019-02-06T19:50:01.547Z,5.01
2019-02-06T19:52:36.392Z,4.97
2019-02-06T19:55:08.670Z,4.99
2019-02-06T19:57:39.123Z,5.04
2019-02-06T20:00:12.939Z,4.96
2019-02-06T20:02:43.749Z,5.00
2019-02-06T20:05:15.586Z,4.94
2019-02-06T20:07:47.268Z,4.93
2019-02-06T20:10:30.231Z,4.99
2019-02-06T20:13:10.581Z,4.90
2019-02-06T20:15:33.280Z,4.86
2019-02-06T20:18:03.817Z,4.77
2019-02-06T20:20:34.634Z,4.77
2019-02-06T20:23:05.586Z,4.81
2019-02-06T20:25:36.076Z,4.81
2019-02-06T20:28:07.902Z,4.80
2019-02-06T20:30:38.363Z,4.77
2019-02-06T20:33:08.868Z,4.66
2019-02-06T20:35:40.598Z,4.56
2019-02-06T20:38:11.706Z,4.59
2019-02-06T20:40:43.316Z,4.63
2019-02-06T20:43:21.685Z,4.60
2019-02-06T20:45:45.962Z,4.52
2019-02-06T20:48:16.894Z,4.53
2019-02-06T20:50:48.230Z,4.52
2019-02-06T20:53:19.691Z,4.44
2019-02-06T20:55:50.846Z,4.43
2019-02-06T20:58:24.031Z,4.41
2019-02-06T21:00:54.470Z,4.43
2019-02-06T21:03:26.767Z,4.42
2019-02-06T21:05:57.314Z,4.45
2019-02-06T21:08:27.760Z,4.40
2019-02-06T21:10:58.530Z,4.39
2019-02-06T21:13:33.161Z,4.37
2019-02-06T21:16:01.103Z,4.38
2019-02-06T21:18:31.956Z,4.42
2019-02-06T21:21:02.922Z,4.40
2019-02-06T21:23:33.365Z,4.36
2019-02-06T21:26:03.849Z,4.39
2019-02-06T21:28:34.422Z,4.41
2019-02-06T21:31:06.575Z,4.35
2019-02-06T21:33:37.414Z,4.46
2019-02-06T21:36:08.254Z,4.41
2019-02-06T21:38:38.800Z,4.32
2019-02-06T21:41:09.290Z,4.36
2019-02-06T21:43:44.159Z,4.31
2019-02-06T21:46:12.278Z,4.26
2019-02-06T21:48:43.051Z,4.25
2019-02-06T21:51:13.506Z,4.27
2019-02-06T21:53:44.338Z,4.18
2019-02-06T21:56:14.846Z,4.05
2019-02-06T21:58:45.463Z,4.09
2019-02-06T22:01:15.911Z,4.10
2019-02-06T22:03:46.767Z,4.04
2019-02-06T22:06:17.212Z,4.06
2019-02-06T22:08:47.978Z,4.02
2019-02-06T22:11:19.070Z,4.08
2019-02-06T22:13:55.285Z,3.97
2019-02-06T22:16:21.650Z,3.94
2019-02-06T22:18:53.347Z,3.95
2019-02-06T22:21:23.795Z,3.96
2019-02-06T22:23:54.609Z,3.99
2019-02-06T22:26:25.103Z,3.97
2019-02-06T22:28:55.875Z,3.92
2019-02-06T22:31:26.390Z,3.95
2019-02-06T22:33:56.891Z,4.06
2019-02-06T22:36:27.334Z,4.00
2019-02-06T22:38:57.786Z,4.05
2019-02-06T22:41:28.583Z,4.04
2019-02-06T22:44:06.706Z,4.00
2019-02-06T22:46:32.658Z,3.93
2019-02-06T22:49:03.493Z,3.94
2019-02-06T22:51:34.214Z,3.98
2019-02-06T22:54:04.986Z,3.94
2019-02-06T22:56:35.427Z,3.88
2019-02-06T22:59:06.081Z,3.91
2019-02-06T23:01:43.777Z,3.82
2019-02-06T23:04:14.221Z,3.82
2019-02-06T23:06:44.665Z,3.81
2019-02-06T23:09:15.171Z,3.82
2019-02-06T23:11:45.610Z,3.90
2019-02-06T23:14:19.347Z,3.85
2019-02-06T23:16:49.201Z,3.83
2019-02-06T23:19:20.985Z,3.82
2019-02-06T23:21:51.423Z,3.81
2019-02-06T23:24:21.914Z,3.79
2019-02-06T23:26:52.352Z,3.75
2019-02-06T23:29:23.239Z,3.74
2019-02-06T23:31:53.739Z,3.74
2019-02-06T23:34:24.175Z,3.73
2019-02-06T23:36:54.609Z,3.82
2019-02-06T23:39:25.366Z,3.73
2019-02-06T23:41:56.274Z,3.75
2019-02-06T23:44:29.095Z,3.71
2019-02-06T23:46:59.562Z,3.72
2019-02-06T23:49:29.997Z,3.75
2019-02-06T23:52:00.431Z,3.74
2019-02-06T23:54:31.679Z,3.74
2019-02-06T23:57:02.102Z,3.72
2019-02-06T23:59:32.654Z,3.76
